Time,TemperatureF,DewpointF,PressureIn,WindDirection,WindDirectionDegrees,WindSpeedMPH,WindSpeedGustMPH,Humidity,HourlyPrecipIn,Conditions,Clouds,dailyrainin,SoftwareType,DateUTC
2013-02-15 00:01:00,44.0,39.0,-100.00,NE,45,4.0,5.0,81,-99.99,,,-99.99,,2013-02-15 08:01:00,
2013-02-15 00:11:00,44.0,39.0,-100.00,NE,45,4.0,6.0,82,-99.99,,,-99.99,,2013-02-15 08:11:00,
2013-02-15 00:21:00,44.0,39.0,-100.00,NE,45,4.0,6.0,82,-99.99,,,-99.99,,2013-02-15 08:21:00,
2013-02-15 00:31:00,44.0,39.0,-100.00,North,0,4.0,5.0,84,-99.99,,,-99.99,,2013-02-15 08:31:00,
2013-02-15 00:41:00,43.0,39.0,-100.00,NE,45,6.0,8.0,85,-99.99,,,-99.99,,2013-02-15 08:41:00,
2013-02-15 00:53:00,43.0,39.0,-100.00,NE,45,6.0,8.0,85,-99.99,,,-99.99,,2013-02-15 08:53:00,
2013-02-15 01:01:00,43.0,39.0,-100.00,NE,45,6.0,8.0,86,-99.99,,,-99.99,,2013-02-15 09:01:00,
2013-02-15 01:12:00,43.0,39.0,-100.00,NE,45,3.0,4.0,87,-99.99,,,-99.99,,2013-02-15 09:12:00,
2013-02-15 01:21:00,43.0,39.0,-100.00,NE,45,3.0,4.0,87,-99.99,,,-99.99,,2013-02-15 09:21:00,
2013-02-15 01:31:00,43.0,39.0,-100.00,NE,45,2.0,3.0,87,-99.99,,,-99.99,,2013-02-15 09:31:00,
2013-02-15 01:41:00,43.0,39.0,-100.00,North,0,4.0,6.0,88,-99.99,,,-99.99,,2013-02-15 09:41:00,
2013-02-15 01:52:00,43.0,39.0,-100.00,North,0,4.0,6.0,88,-99.99,,,-99.99,,2013-02-15 09:52:00,
2013-02-15 02:01:00,42.0,39.0,-100.00,NE,45,3.0,4.0,88,-99.99,,,-99.99,,2013-02-15 10:01:00,
2013-02-15 02:11:00,42.0,39.0,-100.00,North,0,5.0,7.0,89,-99.99,,,-99.99,,2013-02-15 10:11:00,
2013-02-15 02:21:00,42.0,39.0,-100.00,North,0,5.0,7.0,89,-99.99,,,-99.99,,2013-02-15 10:21:00,
2013-02-15 02:31:00,42.0,39.0,-100.00,East,90,3.0,6.0,89,-99.99,,,-99.99,,2013-02-15 10:31:00,
2013-02-15 02:41:00,42.0,39.0,-100.00,North,0,2.0,5.0,90,-99.99,,,-99.99,,2013-02-15 10:41:00,
2013-02-15 02:52:00,42.0,39.0,-100.00,North,0,2.0,5.0,90,-99.99,,,-99.99,,2013-02-15 10:52:00,
2013-02-15 03:01:00,42.0,39.0,-100.00,North,0,5.0,7.0,90,-99.99,,,-99.99,,2013-02-15 11:01:00,
2013-02-15 03:11:00,42.0,39.0,-100.00,NW,315,3.0,6.0,90,-99.99,,,-99.99,,2013-02-15 11:11:00,
2013-02-15 03:22:00,42.0,39.0,-100.00,NW,315,3.0,6.0,90,-99.99,,,-99.99,,2013-02-15 11:22:00,
2013-02-15 03:31:00,42.0,39.0,-100.00,NE,45,4.0,6.0,90,-99.99,,,-99.99,,2013-02-15 11:31:00,
2013-02-15 03:42:00,42.0,39.0,-100.00,NE,45,6.0,8.0,90,-99.99,,,-99.99,,2013-02-15 11:42:00,
2013-02-15 03:52:00,42.0,39.0,-100.00,NE,45,6.0,8.0,90,-99.99,,,-99.99,,2013-02-15 11:52:00,
2013-02-15 04:01:00,42.0,39.0,-100.00,North,0,4.0,6.0,90,-99.99,,,-99.99,,2013-02-15 12:01:00,
2013-02-15 04:11:00,42.0,39.0,-100.00,NE,45,6.0,11.0,90,-99.99,,,-99.99,,2013-02-15 12:11:00,
2013-02-15 04:21:00,42.0,39.0,-100.00,NE,45,6.0,11.0,90,-99.99,,,-99.99,,2013-02-15 12:21:00,
2013-02-15 04:31:00,42.0,39.0,-100.00,NE,45,6.0,8.0,90,-99.99,,,-99.99,,2013-02-15 12:31:00,
2013-02-15 04:42:00,42.0,39.0,-100.00,NE,45,4.0,6.0,90,-99.99,,,-99.99,,2013-02-15 12:42:00,
2013-02-15 04:52:00,42.0,39.0,-100.00,NE,45,4.0,6.0,90,-99.99,,,-99.99,,2013-02-15 12:52:00,
2013-02-15 05:02:00,42.0,39.0,-100.00,North,0,8.0,10.0,90,-99.99,,,-99.99,,2013-02-15 13:02:00,
2013-02-15 05:11:00,42.0,39.0,-100.00,NE,45,8.0,11.0,90,-99.99,,,-99.99,,2013-02-15 13:11:00,
2013-02-15 05:21:00,42.0,39.0,-100.00,NE,45,8.0,11.0,90,-99.99,,,-99.99,,2013-02-15 13:21:00,
2013-02-15 05:31:00,42.0,39.0,-100.00,NE,45,4.0,5.0,90,-99.99,,,-99.99,,2013-02-15 13:31:00,
2013-02-15 05:41:00,42.0,39.0,-100.00,North,0,6.0,8.0,90,-99.99,,,-99.99,,2013-02-15 13:41:00,
2013-02-15 05:52:00,42.0,39.0,-100.00,North,0,6.0,8.0,90,-99.99,,,-99.99,,2013-02-15 13:52:00,
2013-02-15 06:01:00,42.0,39.0,-100.00,NE,45,5.0,8.0,90,-99.99,,,-99.99,,2013-02-15 14:01:00,
2013-02-15 06:11:00,42.0,39.0,-100.00,North,0,5.0,8.0,90,-99.99,,,-99.99,,2013-02-15 14:11:00,
2013-02-15 06:21:00,42.0,39.0,-100.00,North,0,5.0,8.0,90,-99.99,,,-99.99,,2013-02-15 14:21:00,
2013-02-15 06:32:00,42.0,39.0,-100.00,NE,45,6.0,8.0,90,-99.99,,,-99.99,,2013-02-15 14:32:00,
2013-02-15 06:41:00,42.0,39.0,-100.00,North,0,9.0,12.0,90,-99.99,,,-99.99,,2013-02-15 14:41:00,
2013-02-15 06:52:00,42.0,39.0,-100.00,North,0,9.0,12.0,90,-99.99,,,-99.99,,2013-02-15 14:52:00,
2013-02-15 07:01:00,42.0,39.0,-100.00,North,0,1.0,3.0,90,-99.99,,,-99.99,,2013-02-15 15:01:00,
2013-02-15 07:11:00,42.0,39.0,-100.00,NW,315,1.0,2.0,90,-99.99,,,-99.99,,2013-02-15 15:11:00,
2013-02-15 07:21:00,42.0,39.0,-100.00,NW,315,1.0,2.0,90,-99.99,,,-99.99,,2013-02-15 15:21:00,
2013-02-15 07:32:00,42.0,39.0,-100.00,NE,45,4.0,6.0,90,-99.99,,,-99.99,,2013-02-15 15:32:00,
2013-02-15 07:41:00,42.0,39.0,-100.00,NE,45,2.0,4.0,90,-99.99,,,-99.99,,2013-02-15 15:41:00,
2013-02-15 07:52:00,42.0,39.0,-100.00,NE,45,6.0,9.0,90,-99.99,,,-99.99,,2013-02-15 15:52:00,
2013-02-15 08:01:00,42.0,39.0,-100.00,NE,45,6.0,9.0,90,-99.99,,,-99.99,,2013-02-15 16:01:00,
2013-02-15 08:11:00,42.0,39.0,-100.00,North,0,6.0,7.0,90,-99.99,,,-99.99,,2013-02-15 16:11:00,
2013-02-15 08:22:00,42.0,39.0,-100.00,North,0,6.0,7.0,90,-99.99,,,-99.99,,2013-02-15 16:22:00,
2013-02-15 08:31:00,41.0,39.0,-100.00,North,0,5.0,7.0,90,-99.99,,,-99.99,,2013-02-15 16:31:00,
2013-02-15 08:42:00,41.0,39.0,-100.00,North,0,4.0,7.0,90,-99.99,,,-99.99,,2013-02-15 16:42:00,
2013-02-15 08:52:00,41.0,39.0,-100.00,North,0,4.0,7.0,90,-99.99,,,-99.99,,2013-02-15 16:52:00,
2013-02-15 09:01:00,42.0,39.0,-100.00,North,0,5.0,7.0,90,-99.99,,,-99.99,,2013-02-15 17:01:00,
2013-02-15 09:11:00,42.0,39.0,-100.00,North,0,5.0,6.0,90,-99.99,,,-99.99,,2013-02-15 17:11:00,
2013-02-15 09:21:00,42.0,39.0,-100.00,North,0,5.0,6.0,90,-99.99,,,-99.99,,2013-02-15 17:21:00,
2013-02-15 09:31:00,42.0,39.0,-100.00,North,0,8.0,9.0,90,-99.99,,,-99.99,,2013-02-15 17:31:00,
2013-02-15 09:41:00,42.0,39.0,-100.00,North,0,3.0,5.0,89,-99.99,,,-99.99,,2013-02-15 17:41:00,
2013-02-15 09:52:00,42.0,39.0,-100.00,North,0,3.0,5.0,89,-99.99,,,-99.99,,2013-02-15 17:52:00,
2013-02-15 10:01:00,42.0,39.0,-100.00,NE,45,3.0,4.0,89,-99.99,,,-99.99,,2013-02-15 18:01:00,
2013-02-15 10:11:00,42.0,39.0,-100.00,East,90,2.0,3.0,88,-99.99,,,-99.99,,2013-02-15 18:11:00,
2013-02-15 10:21:00,42.0,39.0,-100.00,East,90,2.0,3.0,88,-99.99,,,-99.99,,2013-02-15 18:21:00,
2013-02-15 10:31:00,43.0,39.0,-100.00,NE,45,3.0,5.0,87,-99.99,,,-99.99,,2013-02-15 18:31:00,
2013-02-15 10:41:00,43.0,39.0,-100.00,NE,45,3.0,4.0,86,-99.99,,,-99.99,,2013-02-15 18:41:00,
2013-02-15 10:52:00,43.0,39.0,-100.00,NE,45,3.0,4.0,86,-99.99,,,-99.99,,2013-02-15 18:52:00,
2013-02-15 11:01:00,43.0,39.0,-100.00,North,0,5.0,8.0,85,-99.99,,,-99.99,,2013-02-15 19:01:00,
2013-02-15 11:11:00,44.0,39.0,-100.00,NW,315,4.0,7.0,83,-99.99,,,-99.99,,2013-02-15 19:11:00,
2013-02-15 11:21:00,44.0,39.0,-100.00,NW,315,4.0,7.0,83,-99.99,,,-99.99,,2013-02-15 19:21:00,
2013-02-15 11:31:00,44.0,39.0,-100.00,NW,315,4.0,5.0,81,-99.99,,,-99.99,,2013-02-15 19:31:00,
2013-02-15 11:41:00,44.0,38.0,-100.00,NE,45,3.0,6.0,79,-99.99,,,-99.99,,2013-02-15 19:41:00,
2013-02-15 11:52:00,44.0,38.0,-100.00,NE,45,3.0,6.0,79,-99.99,,,-99.99,,2013-02-15 19:52:00,
2013-02-15 12:01:00,45.0,38.0,-100.00,NE,45,4.0,6.0,77,-99.99,,,-99.99,,2013-02-15 20:01:00,
2013-02-15 12:11:00,47.0,38.0,-100.00,NE,45,4.0,7.0,73,-99.99,,,-99.99,,2013-02-15 20:11:00,
2013-02-15 12:21:00,47.0,38.0,-100.00,NE,45,4.0,7.0,73,-99.99,,,-99.99,,2013-02-15 20:21:00,
2013-02-15 12:32:00,48.0,38.0,-100.00,North,0,4.0,4.0,67,-99.99,,,-99.99,,2013-02-15 20:32:00,
2013-02-15 12:42:00,49.0,38.0,-100.00,North,0,3.0,6.0,65,-99.99,,,-99.99,,2013-02-15 20:42:00,
2013-02-15 12:52:00,49.0,38.0,-100.00,North,0,3.0,6.0,65,-99.99,,,-99.99,,2013-02-15 20:52:00,
2013-02-15 13:01:00,51.0,38.0,-100.00,North,0,1.0,3.0,60,-99.99,,,-99.99,,2013-02-15 21:01:00,
2013-02-15 13:11:00,51.0,38.0,-100.00,North,0,1.0,3.0,60,-99.99,,,-99.99,,2013-02-15 21:11:00,
2013-02-15 13:21:00,51.0,38.0,-100.00,North,0,1.0,3.0,60,-99.99,,,-99.99,,2013-02-15 21:21:00,
2013-02-15 13:31:00,52.0,36.0,-100.00,NE,45,4.0,5.0,55,-99.99,,,-99.99,,2013-02-15 21:31:00,
2013-02-15 13:42:00,54.0,37.0,-100.00,North,0,4.0,6.0,53,-99.99,,,-99.99,,2013-02-15 21:42:00,
2013-02-15 13:52:00,54.0,37.0,-100.00,North,0,4.0,6.0,53,-99.99,,,-99.99,,2013-02-15 21:52:00,
2013-02-15 14:01:00,55.0,37.0,-100.00,NW,315,2.0,6.0,50,-99.99,,,-99.99,,2013-02-15 22:01:00,
2013-02-15 14:11:00,56.0,37.0,-100.00,SW,225,1.0,4.0,49,-99.99,,,-99.99,,2013-02-15 22:11:00,
2013-02-15 14:21:00,56.0,37.0,-100.00,SW,225,1.0,4.0,49,-99.99,,,-99.99,,2013-02-15 22:21:00,
2013-02-15 14:31:00,56.0,36.0,-100.00,NE,45,4.0,6.0,47,-99.99,,,-99.99,,2013-02-15 22:31:00,
2013-02-15 14:41:00,57.0,36.0,-100.00,NE,45,3.0,4.0,46,-99.99,,,-99.99,,2013-02-15 22:41:00,
2013-02-15 14:52:00,57.0,36.0,-100.00,NE,45,3.0,4.0,46,-99.99,,,-99.99,,2013-02-15 22:52:00,
2013-02-15 15:02:00,57.0,36.0,-100.00,North,0,3.0,4.0,46,-99.99,,,-99.99,,2013-02-15 23:02:00,
2013-02-15 15:11:00,58.0,37.0,-100.00,West,270,2.0,3.0,45,-99.99,,,-99.99,,2013-02-15 23:11:00,
2013-02-15 15:21:00,58.0,37.0,-100.00,West,270,2.0,3.0,45,-99.99,,,-99.99,,2013-02-15 23:21:00,
2013-02-15 15:31:00,58.0,36.0,-100.00,NE,45,4.0,6.0,44,-99.99,,,-99.99,,2013-02-15 23:31:00,
2013-02-15 15:41:00,59.0,37.0,-100.00,South,180,1.0,3.0,44,-99.99,,,-99.99,,2013-02-15 23:41:00,
2013-02-15 15:52:00,59.0,37.0,-100.00,South,180,1.0,3.0,44,-99.99,,,-99.99,,2013-02-15 23:52:00,
2013-02-15 16:01:00,59.0,36.0,-100.00,NW,315,1.0,1.0,43,-99.99,,,-99.99,,2013-02-16 00:01:00,
2013-02-15 16:11:00,58.0,36.0,-100.00,West,270,1.0,2.0,44,-99.99,,,-99.99,,2013-02-16 00:11:00,
2013-02-15 16:21:00,58.0,36.0,-100.00,West,270,1.0,2.0,44,-99.99,,,-99.99,,2013-02-16 00:21:00,
2013-02-15 16:31:00,59.0,37.0,-100.00,SW,225,3.0,4.0,43,-99.99,,,-99.99,,2013-02-16 00:31:00,
2013-02-15 16:41:00,58.0,38.0,-100.00,South,180,1.0,2.0,46,-99.99,,,-99.99,,2013-02-16 00:41:00,
2013-02-15 16:52:00,58.0,38.0,-100.00,South,180,1.0,2.0,46,-99.99,,,-99.99,,2013-02-16 00:52:00,
2013-02-15 17:02:00,57.0,38.0,-100.00,South,180,1.0,1.0,48,-99.99,,,-99.99,,2013-02-16 01:02:00,
2013-02-15 17:11:00,57.0,38.0,-100.00,SW,225,4.0,5.0,48,-99.99,,,-99.99,,2013-02-16 01:11:00,
2013-02-15 17:21:00,57.0,38.0,-100.00,SW,225,4.0,5.0,48,-99.99,,,-99.99,,2013-02-16 01:21:00,
2013-02-15 17:41:00,53.0,39.0,-100.00,South,180,6.0,8.0,60,-99.99,,,-99.99,,2013-02-16 01:41:00,
2013-02-15 17:52:00,53.0,39.0,-100.00,South,180,6.0,8.0,60,-99.99,,,-99.99,,2013-02-16 01:52:00,
2013-02-15 18:01:00,50.0,40.0,-100.00,SW,225,6.0,8.0,67,-99.99,,,-99.99,,2013-02-16 02:01:00,
2013-02-15 18:11:00,49.0,40.0,-100.00,SW,225,4.0,5.0,72,-99.99,,,-99.99,,2013-02-16 02:11:00,
2013-02-15 18:21:00,49.0,40.0,-100.00,SW,225,4.0,5.0,72,-99.99,,,-99.99,,2013-02-16 02:21:00,
2013-02-15 18:31:00,48.0,40.0,-100.00,SW,225,4.0,5.0,75,-99.99,,,-99.99,,2013-02-16 02:31:00,
2013-02-15 18:42:00,47.0,40.0,-100.00,South,180,3.0,4.0,77,-99.99,,,-99.99,,2013-02-16 02:42:00,
2013-02-15 18:52:00,47.0,40.0,-100.00,South,180,3.0,4.0,77,-99.99,,,-99.99,,2013-02-16 02:52:00,
2013-02-15 19:01:00,47.0,40.0,-100.00,SW,225,4.0,6.0,79,-99.99,,,-99.99,,2013-02-16 03:01:00,
2013-02-15 19:11:00,46.0,41.0,-100.00,SW,225,5.0,7.0,81,-99.99,,,-99.99,,2013-02-16 03:11:00,
2013-02-15 19:21:00,46.0,41.0,-100.00,SW,225,5.0,7.0,81,-99.99,,,-99.99,,2013-02-16 03:21:00,
2013-02-15 19:31:00,46.0,41.0,-100.00,West,270,4.0,6.0,82,-99.99,,,-99.99,,2013-02-16 03:31:00,
2013-02-15 19:41:00,45.0,41.0,-100.00,SW,225,4.0,5.0,83,-99.99,,,-99.99,,2013-02-16 03:41:00,
2013-02-15 19:52:00,45.0,41.0,-100.00,SW,225,4.0,5.0,83,-99.99,,,-99.99,,2013-02-16 03:52:00,
2013-02-15 20:01:00,45.0,40.0,-100.00,SW,225,3.0,4.0,84,-99.99,,,-99.99,,2013-02-16 04:01:00,
2013-02-15 20:11:00,44.0,40.0,-100.00,SW,225,3.0,4.0,85,-99.99,,,-99.99,,2013-02-16 04:11:00,
2013-02-15 20:21:00,44.0,40.0,-100.00,SW,225,3.0,4.0,85,-99.99,,,-99.99,,2013-02-16 04:21:00,
2013-02-15 20:31:00,44.0,40.0,-100.00,SW,225,6.0,7.0,86,-99.99,,,-99.99,,2013-02-16 04:31:00,
2013-02-15 20:41:00,43.0,39.0,-100.00,SW,225,2.0,3.0,87,-99.99,,,-99.99,,2013-02-16 04:41:00,
2013-02-15 20:52:00,43.0,39.0,-100.00,SW,225,2.0,3.0,87,-99.99,,,-99.99,,2013-02-16 04:52:00,
2013-02-15 21:01:00,43.0,39.0,-100.00,SW,225,4.0,5.0,88,-99.99,,,-99.99,,2013-02-16 05:01:00,
2013-02-15 21:11:00,42.0,39.0,-100.00,West,270,2.0,3.0,88,-99.99,,,-99.99,,2013-02-16 05:11:00,
2013-02-15 21:21:00,42.0,39.0,-100.00,West,270,2.0,3.0,88,-99.99,,,-99.99,,2013-02-16 05:21:00,
2013-02-15 21:31:00,42.0,38.0,-100.00,South,180,4.0,4.0,88,-99.99,,,-99.99,,2013-02-16 05:31:00,
2013-02-15 21:42:00,41.0,38.0,-100.00,SW,225,3.0,3.0,89,-99.99,,,-99.99,,2013-02-16 05:42:00,
2013-02-15 21:52:00,41.0,38.0,-100.00,SW,225,3.0,3.0,89,-99.99,,,-99.99,,2013-02-16 05:52:00,
2013-02-15 22:01:00,41.0,38.0,-100.00,South,180,2.0,3.0,89,-99.99,,,-99.99,,2013-02-16 06:01:00,
2013-02-15 22:11:00,40.0,37.0,-100.00,South,180,3.0,4.0,89,-99.99,,,-99.99,,2013-02-16 06:11:00,
2013-02-15 22:21:00,40.0,37.0,-100.00,South,180,3.0,4.0,89,-99.99,,,-99.99,,2013-02-16 06:21:00,
2013-02-15 22:32:00,41.0,38.0,-100.00,South,180,3.0,5.0,90,-99.99,,,-99.99,,2013-02-16 06:32:00,
2013-02-15 22:41:00,41.0,38.0,-100.00,South,180,3.0,4.0,90,-99.99,,,-99.99,,2013-02-16 06:41:00,
2013-02-15 22:52:00,41.0,38.0,-100.00,South,180,3.0,4.0,90,-99.99,,,-99.99,,2013-02-16 06:52:00,
2013-02-15 23:02:00,41.0,38.0,-100.00,SW,225,3.0,4.0,90,-99.99,,,-99.99,,2013-02-16 07:02:00,
2013-02-15 23:11:00,41.0,38.0,-100.00,SW,225,4.0,5.0,90,-99.99,,,-99.99,,2013-02-16 07:11:00,
2013-02-15 23:21:00,41.0,38.0,-100.00,SW,225,4.0,5.0,90,-99.99,,,-99.99,,2013-02-16 07:21:00,
2013-02-15 23:31:00,40.0,37.0,-100.00,South,180,2.0,3.0,90,-99.99,,,-99.99,,2013-02-16 07:31:00,
2013-02-15 23:42:00,40.0,37.0,-100.00,South,180,8.0,9.0,90,-99.99,,,-99.99,,2013-02-16 07:42:00,
2013-02-15 23:53:00,40.0,37.0,-100.00,South,180,8.0,9.0,90,-99.99,,,-99.99,,2013-02-16 07:53:00,